sensor_id;sensor_type;location;lat;lon;timestamp;P1;durP1;ratioP1;P2;durP2;ratioP2
24216;SDS011;12356;49.386;8.688;2022-10-17T00:00:03;12.63;;;2.80;;
24216;SDS011;12356;49.386;8.688;2022-10-17T00:02:34;10.10;;;3.00;;
24216;SDS011;12356;49.386;8.688;2022-10-17T00:05:05;6.75;;;2.55;;
24216;SDS011;12356;49.386;8.688;2022-10-17T00:07:36;11.50;;;2.80;;
24216;SDS011;12356;49.386;8.688;2022-10-17T00:10:07;7.93;;;2.65;;
24216;SDS011;12356;49.386;8.688;2022-10-17T00:12:38;7.68;;;2.70;;
24216;SDS011;12356;49.386;8.688;2022-10-17T00:15:09;12.57;;;2.88;;
24216;SDS011;12356;49.386;8.688;2022-10-17T00:17:43;3.45;;;2.45;;
24216;SDS011;12356;49.386;8.688;2022-10-17T00:20:14;11.35;;;2.78;;
24216;SDS011;12356;49.386;8.688;2022-10-17T00:22:45;14.07;;;3.20;;
24216;SDS011;12356;49.386;8.688;2022-10-17T00:25:16;7.95;;;2.75;;
24216;SDS011;12356;49.386;8.688;2022-10-17T00:27:47;8.57;;;2.58;;
24216;SDS011;12356;49.386;8.688;2022-10-17T00:30:18;7.07;;;2.60;;
24216;SDS011;12356;49.386;8.688;2022-10-17T00:32:48;5.15;;;2.70;;
24216;SDS011;12356;49.386;8.688;2022-10-17T00:35:19;8.30;;;2.92;;
24216;SDS011;12356;49.386;8.688;2022-10-17T00:37:50;7.53;;;3.03;;
24216;SDS011;12356;49.386;8.688;2022-10-17T00:40:21;7.00;;;2.70;;
24216;SDS011;12356;49.386;8.688;2022-10-17T00:42:51;8.35;;;3.22;;
24216;SDS011;12356;49.386;8.688;2022-10-17T00:45:23;9.55;;;2.90;;
24216;SDS011;12356;49.386;8.688;2022-10-17T00:47:59;10.27;;;3.00;;
24216;SDS011;12356;49.386;8.688;2022-10-17T00:50:34;8.38;;;3.13;;
24216;SDS011;12356;49.386;8.688;2022-10-17T00:53:07;5.20;;;2.50;;
24216;SDS011;12356;49.386;8.688;2022-10-17T00:55:57;9.55;;;2.78;;
24216;SDS011;12356;49.386;8.688;2022-10-17T00:58:28;8.05;;;2.58;;
24216;SDS011;12356;49.386;8.688;2022-10-17T01:00:58;4.25;;;2.65;;
24216;SDS011;12356;49.386;8.688;2022-10-17T01:03:31;7.40;;;2.80;;
24216;SDS011;12356;49.386;8.688;2022-10-17T01:06:01;6.93;;;2.30;;
24216;SDS011;12356;49.386;8.688;2022-10-17T01:08:32;9.13;;;2.55;;
24216;SDS011;12356;49.386;8.688;2022-10-17T01:11:17;6.10;;;2.58;;
24216;SDS011;12356;49.386;8.688;2022-10-17T01:19:50;7.90;;;2.88;;
24216;SDS011;12356;49.386;8.688;2022-10-17T01:22:46;7.13;;;2.70;;
24216;SDS011;12356;49.386;8.688;2022-10-17T01:28:31;6.65;;;2.60;;
24216;SDS011;12356;49.386;8.688;2022-10-17T01:31:33;10.07;;;2.90;;
24216;SDS011;12356;49.386;8.688;2022-10-17T01:34:14;14.00;;;3.13;;
24216;SDS011;12356;49.386;8.688;2022-10-17T01:39:49;8.65;;;2.72;;
24216;SDS011;12356;49.386;8.688;2022-10-17T01:42:25;7.00;;;2.50;;
24216;SDS011;12356;49.386;8.688;2022-10-17T01:47:48;5.00;;;2.50;;
24216;SDS011;12356;49.386;8.688;2022-10-17T01:50:27;5.20;;;2.70;;
24216;SDS011;12356;49.386;8.688;2022-10-17T01:53:04;6.32;;;2.70;;
24216;SDS011;12356;49.386;8.688;2022-10-17T01:55:41;9.15;;;2.83;;
24216;SDS011;12356;49.386;8.688;2022-10-17T01:58:26;8.32;;;2.33;;
24216;SDS011;12356;49.386;8.688;2022-10-17T02:01:04;10.85;;;2.92;;
24216;SDS011;12356;49.386;8.688;2022-10-17T02:03:37;10.70;;;2.95;;
24216;SDS011;12356;49.386;8.688;2022-10-17T02:06:11;11.63;;;3.00;;
24216;SDS011;12356;49.386;8.688;2022-10-17T02:08:45;9.63;;;2.90;;
24216;SDS011;12356;49.386;8.688;2022-10-17T02:16:48;9.75;;;2.60;;
24216;SDS011;12356;49.386;8.688;2022-10-17T02:19:40;10.48;;;2.60;;
24216;SDS011;12356;49.386;8.688;2022-10-17T02:22:39;9.52;;;2.80;;
24216;SDS011;12356;49.386;8.688;2022-10-17T02:28:22;14.68;;;2.80;;
24216;SDS011;12356;49.386;8.688;2022-10-17T02:31:12;11.68;;;2.88;;
24216;SDS011;12356;49.386;8.688;2022-10-17T02:33:48;10.20;;;2.90;;
24216;SDS011;12356;49.386;8.688;2022-10-17T02:36:28;7.43;;;2.53;;
24216;SDS011;12356;49.386;8.688;2022-10-17T02:39:05;7.35;;;2.83;;
24216;SDS011;12356;49.386;8.688;2022-10-17T02:44:09;18.02;;;2.50;;
24216;SDS011;12356;49.386;8.688;2022-10-17T02:46:40;13.55;;;3.10;;
24216;SDS011;12356;49.386;8.688;2022-10-17T02:49:17;7.60;;;2.40;;
24216;SDS011;12356;49.386;8.688;2022-10-17T02:52:00;6.55;;;2.60;;
24216;SDS011;12356;49.386;8.688;2022-10-17T02:54:39;10.80;;;2.53;;
24216;SDS011;12356;49.386;8.688;2022-10-17T02:57:27;9.80;;;2.45;;
24216;SDS011;12356;49.386;8.688;2022-10-17T03:00:04;9.98;;;2.70;;
24216;SDS011;12356;49.386;8.688;2022-10-17T03:02:38;13.52;;;2.75;;
24216;SDS011;12356;49.386;8.688;2022-10-17T03:05:20;10.97;;;2.50;;
24216;SDS011;12356;49.386;8.688;2022-10-17T03:07:52;8.23;;;2.70;;
24216;SDS011;12356;49.386;8.688;2022-10-17T03:10:24;5.47;;;2.45;;
24216;SDS011;12356;49.386;8.688;2022-10-17T03:12:55;12.88;;;2.70;;
24216;SDS011;12356;49.386;8.688;2022-10-17T03:15:25;7.80;;;2.85;;
24216;SDS011;12356;49.386;8.688;2022-10-17T03:17:56;7.10;;;2.55;;
24216;SDS011;12356;49.386;8.688;2022-10-17T03:20:26;16.50;;;2.72;;
24216;SDS011;12356;49.386;8.688;2022-10-17T03:22:57;9.70;;;2.83;;
24216;SDS011;12356;49.386;8.688;2022-10-17T03:25:28;9.32;;;2.47;;
24216;SDS011;12356;49.386;8.688;2022-10-17T03:27:59;7.63;;;2.78;;
24216;SDS011;12356;49.386;8.688;2022-10-17T03:30:30;5.20;;;2.65;;
24216;SDS011;12356;49.386;8.688;2022-10-17T03:33:01;6.45;;;2.78;;
24216;SDS011;12356;49.386;8.688;2022-10-17T03:35:32;9.38;;;2.60;;
24216;SDS011;12356;49.386;8.688;2022-10-17T03:38:02;10.50;;;2.47;;
24216;SDS011;12356;49.386;8.688;2022-10-17T03:40:33;13.07;;;3.05;;
24216;SDS011;12356;49.386;8.688;2022-10-17T03:43:04;11.95;;;2.90;;
24216;SDS011;12356;49.386;8.688;2022-10-17T03:45:34;9.75;;;2.97;;
24216;SDS011;12356;49.386;8.688;2022-10-17T03:48:05;7.38;;;2.80;;
24216;SDS011;12356;49.386;8.688;2022-10-17T03:50:36;8.85;;;2.65;;
24216;SDS011;12356;49.386;8.688;2022-10-17T03:53:07;11.52;;;3.10;;
24216;SDS011;12356;49.386;8.688;2022-10-17T03:55:37;8.52;;;2.75;;
24216;SDS011;12356;49.386;8.688;2022-10-17T03:58:08;8.52;;;3.20;;
24216;SDS011;12356;49.386;8.688;2022-10-17T04:00:39;11.25;;;2.63;;
24216;SDS011;12356;49.386;8.688;2022-10-17T04:03:09;10.68;;;2.80;;
24216;SDS011;12356;49.386;8.688;2022-10-17T04:05:40;11.50;;;2.90;;
24216;SDS011;12356;49.386;8.688;2022-10-17T04:08:10;9.93;;;2.70;;
24216;SDS011;12356;49.386;8.688;2022-10-17T04:10:41;9.85;;;2.70;;
24216;SDS011;12356;49.386;8.688;2022-10-17T04:13:12;9.80;;;2.95;;
24216;SDS011;12356;49.386;8.688;2022-10-17T04:15:53;8.63;;;3.20;;
24216;SDS011;12356;49.386;8.688;2022-10-17T04:18:27;13.57;;;2.80;;
24216;SDS011;12356;49.386;8.688;2022-10-17T04:21:00;7.97;;;2.60;;
24216;SDS011;12356;49.386;8.688;2022-10-17T04:23:32;8.63;;;3.15;;
24216;SDS011;12356;49.386;8.688;2022-10-17T04:26:04;7.47;;;2.80;;
24216;SDS011;12356;49.386;8.688;2022-10-17T04:28:35;16.73;;;3.20;;
24216;SDS011;12356;49.386;8.688;2022-10-17T04:31:07;7.05;;;2.65;;
24216;SDS011;12356;49.386;8.688;2022-10-17T04:33:40;8.70;;;3.00;;
24216;SDS011;12356;49.386;8.688;2022-10-17T04:36:13;8.00;;;2.97;;
24216;SDS011;12356;49.386;8.688;2022-10-17T04:38:45;7.72;;;2.90;;
24216;SDS011;12356;49.386;8.688;2022-10-17T04:41:16;14.88;;;3.10;;
24216;SDS011;12356;49.386;8.688;2022-10-17T04:43:47;9.82;;;2.97;;
24216;SDS011;12356;49.386;8.688;2022-10-17T04:46:18;9.43;;;3.30;;
24216;SDS011;12356;49.386;8.688;2022-10-17T04:48:49;10.25;;;2.88;;
24216;SDS011;12356;49.386;8.688;2022-10-17T04:51:19;11.68;;;3.65;;
24216;SDS011;12356;49.386;8.688;2022-10-17T04:53:50;15.07;;;3.30;;
24216;SDS011;12356;49.386;8.688;2022-10-17T04:56:21;7.60;;;3.17;;
24216;SDS011;12356;49.386;8.688;2022-10-17T04:58:53;9.13;;;3.25;;
24216;SDS011;12356;49.386;8.688;2022-10-17T05:01:23;10.80;;;2.78;;
24216;SDS011;12356;49.386;8.688;2022-10-17T05:03:55;11.55;;;3.03;;
24216;SDS011;12356;49.386;8.688;2022-10-17T05:06:25;10.40;;;3.00;;
24216;SDS011;12356;49.386;8.688;2022-10-17T05:08:59;8.90;;;2.97;;
24216;SDS011;12356;49.386;8.688;2022-10-17T05:11:29;7.85;;;3.10;;
24216;SDS011;12356;49.386;8.688;2022-10-17T05:14:00;7.88;;;3.50;;
24216;SDS011;12356;49.386;8.688;2022-10-17T05:16:32;7.50;;;3.33;;
24216;SDS011;12356;49.386;8.688;2022-10-17T05:19:02;8.75;;;3.40;;
24216;SDS011;12356;49.386;8.688;2022-10-17T05:21:33;11.93;;;3.70;;
24216;SDS011;12356;49.386;8.688;2022-10-17T05:24:06;5.22;;;3.10;;
24216;SDS011;12356;49.386;8.688;2022-10-17T05:26:38;11.55;;;3.33;;
24216;SDS011;12356;49.386;8.688;2022-10-17T05:29:09;7.38;;;3.08;;
24216;SDS011;12356;49.386;8.688;2022-10-17T05:31:39;7.28;;;4.30;;
24216;SDS011;12356;49.386;8.688;2022-10-17T05:34:10;7.57;;;3.58;;
24216;SDS011;12356;49.386;8.688;2022-10-17T05:36:41;10.40;;;4.10;;
24216;SDS011;12356;49.386;8.688;2022-10-17T05:39:12;6.18;;;3.63;;
24216;SDS011;12356;49.386;8.688;2022-10-17T05:41:44;11.20;;;3.97;;
24216;SDS011;12356;49.386;8.688;2022-10-17T05:44:15;11.45;;;4.15;;
24216;SDS011;12356;49.386;8.688;2022-10-17T05:46:48;9.88;;;3.90;;
24216;SDS011;12356;49.386;8.688;2022-10-17T05:49:19;10.20;;;3.60;;
24216;SDS011;12356;49.386;8.688;2022-10-17T05:51:50;8.93;;;3.72;;
24216;SDS011;12356;49.386;8.688;2022-10-17T05:54:20;16.95;;;3.83;;
24216;SDS011;12356;49.386;8.688;2022-10-17T05:56:52;12.82;;;3.75;;
24216;SDS011;12356;49.386;8.688;2022-10-17T05:59:24;7.38;;;3.83;;
24216;SDS011;12356;49.386;8.688;2022-10-17T06:01:55;10.25;;;4.13;;
24216;SDS011;12356;49.386;8.688;2022-10-17T06:04:26;14.68;;;4.03;;
24216;SDS011;12356;49.386;8.688;2022-10-17T06:06:56;9.85;;;4.00;;
24216;SDS011;12356;49.386;8.688;2022-10-17T06:09:27;11.00;;;3.55;;
24216;SDS011;12356;49.386;8.688;2022-10-17T06:11:58;12.57;;;3.70;;
24216;SDS011;12356;49.386;8.688;2022-10-17T06:14:28;15.00;;;3.88;;
24216;SDS011;12356;49.386;8.688;2022-10-17T06:16:59;13.52;;;3.55;;
24216;SDS011;12356;49.386;8.688;2022-10-17T06:19:30;15.25;;;3.90;;
24216;SDS011;12356;49.386;8.688;2022-10-17T06:22:01;13.93;;;3.80;;
24216;SDS011;12356;49.386;8.688;2022-10-17T06:24:31;12.38;;;3.80;;
24216;SDS011;12356;49.386;8.688;2022-10-17T06:27:02;15.52;;;4.60;;
24216;SDS011;12356;49.386;8.688;2022-10-17T06:29:32;12.77;;;3.80;;
24216;SDS011;12356;49.386;8.688;2022-10-17T06:32:03;13.60;;;5.40;;
24216;SDS011;12356;49.386;8.688;2022-10-17T06:34:34;10.07;;;4.07;;
24216;SDS011;12356;49.386;8.688;2022-10-17T06:37:05;6.18;;;4.18;;
24216;SDS011;12356;49.386;8.688;2022-10-17T06:39:35;15.98;;;4.03;;
24216;SDS011;12356;49.386;8.688;2022-10-17T06:42:06;13.88;;;4.65;;
24216;SDS011;12356;49.386;8.688;2022-10-17T06:44:37;9.75;;;4.22;;
24216;SDS011;12356;49.386;8.688;2022-10-17T06:47:09;14.27;;;4.17;;
24216;SDS011;12356;49.386;8.688;2022-10-17T06:49:40;10.05;;;4.40;;
24216;SDS011;12356;49.386;8.688;2022-10-17T06:52:11;13.98;;;4.70;;
24216;SDS011;12356;49.386;8.688;2022-10-17T06:54:42;14.85;;;4.90;;
24216;SDS011;12356;49.386;8.688;2022-10-17T06:57:13;9.55;;;4.63;;
24216;SDS011;12356;49.386;8.688;2022-10-17T06:59:43;9.15;;;4.32;;
24216;SDS011;12356;49.386;8.688;2022-10-17T07:02:14;10.93;;;4.75;;
24216;SDS011;12356;49.386;8.688;2022-10-17T07:04:45;11.30;;;4.47;;
24216;SDS011;12356;49.386;8.688;2022-10-17T07:07:16;17.58;;;5.00;;
24216;SDS011;12356;49.386;8.688;2022-10-17T07:09:47;13.85;;;5.80;;
24216;SDS011;12356;49.386;8.688;2022-10-17T07:12:17;13.68;;;5.50;;
24216;SDS011;12356;49.386;8.688;2022-10-17T07:14:48;12.50;;;5.15;;
24216;SDS011;12356;49.386;8.688;2022-10-17T07:17:19;15.45;;;5.57;;
24216;SDS011;12356;49.386;8.688;2022-10-17T07:19:50;15.88;;;5.93;;
24216;SDS011;12356;49.386;8.688;2022-10-17T07:22:21;16.02;;;5.90;;
24216;SDS011;12356;49.386;8.688;2022-10-17T07:24:51;16.80;;;6.15;;
24216;SDS011;12356;49.386;8.688;2022-10-17T07:27:22;15.40;;;6.20;;
24216;SDS011;12356;49.386;8.688;2022-10-17T07:29:53;8.90;;;6.05;;
24216;SDS011;12356;49.386;8.688;2022-10-17T07:32:23;18.92;;;5.78;;
24216;SDS011;12356;49.386;8.688;2022-10-17T07:34:54;9.02;;;5.30;;
24216;SDS011;12356;49.386;8.688;2022-10-17T07:37:24;15.57;;;5.75;;
24216;SDS011;12356;49.386;8.688;2022-10-17T07:39:55;20.17;;;5.43;;
24216;SDS011;12356;49.386;8.688;2022-10-17T07:42:26;16.00;;;5.43;;
24216;SDS011;12356;49.386;8.688;2022-10-17T07:44:57;10.70;;;5.35;;
24216;SDS011;12356;49.386;8.688;2022-10-17T07:47:28;12.02;;;4.93;;
24216;SDS011;12356;49.386;8.688;2022-10-17T07:50:00;12.15;;;5.40;;
24216;SDS011;12356;49.386;8.688;2022-10-17T07:52:32;11.07;;;5.38;;
24216;SDS011;12356;49.386;8.688;2022-10-17T07:55:03;16.02;;;4.78;;
24216;SDS011;12356;49.386;8.688;2022-10-17T07:57:34;10.30;;;5.00;;
24216;SDS011;12356;49.386;8.688;2022-10-17T08:00:05;11.88;;;4.82;;
24216;SDS011;12356;49.386;8.688;2022-10-17T08:02:37;9.63;;;4.60;;
24216;SDS011;12356;49.386;8.688;2022-10-17T08:05:08;8.95;;;4.85;;
24216;SDS011;12356;49.386;8.688;2022-10-17T08:07:39;10.65;;;4.90;;
24216;SDS011;12356;49.386;8.688;2022-10-17T08:10:11;13.93;;;4.72;;
24216;SDS011;12356;49.386;8.688;2022-10-17T08:12:43;9.70;;;3.92;;
24216;SDS011;12356;49.386;8.688;2022-10-17T08:15:13;12.70;;;4.47;;
24216;SDS011;12356;49.386;8.688;2022-10-17T08:17:44;8.73;;;4.28;;
24216;SDS011;12356;49.386;8.688;2022-10-17T08:20:15;14.65;;;4.75;;
24216;SDS011;12356;49.386;8.688;2022-10-17T08:22:52;11.65;;;3.95;;
24216;SDS011;12356;49.386;8.688;2022-10-17T08:25:23;10.10;;;4.07;;
24216;SDS011;12356;49.386;8.688;2022-10-17T08:27:54;9.15;;;4.30;;
24216;SDS011;12356;49.386;8.688;2022-10-17T08:30:24;14.90;;;4.40;;
24216;SDS011;12356;49.386;8.688;2022-10-17T08:32:55;13.07;;;4.00;;
24216;SDS011;12356;49.386;8.688;2022-10-17T08:35:25;9.80;;;4.18;;
24216;SDS011;12356;49.386;8.688;2022-10-17T08:37:59;10.80;;;4.28;;
24216;SDS011;12356;49.386;8.688;2022-10-17T08:40:30;14.30;;;3.72;;
24216;SDS011;12356;49.386;8.688;2022-10-17T08:45:56;17.48;;;4.85;;
24216;SDS011;12356;49.386;8.688;2022-10-17T08:48:33;12.13;;;4.15;;
24216;SDS011;12356;49.386;8.688;2022-10-17T08:56:32;10.05;;;3.15;;
24216;SDS011;12356;49.386;8.688;2022-10-17T08:59:12;5.85;;;3.22;;
24216;SDS011;12356;49.386;8.688;2022-10-17T09:01:53;7.13;;;2.90;;
24216;SDS011;12356;49.386;8.688;2022-10-17T09:07:46;9.35;;;2.80;;
24216;SDS011;12356;49.386;8.688;2022-10-17T09:10:33;4.65;;;2.90;;
24216;SDS011;12356;49.386;8.688;2022-10-17T09:13:21;8.60;;;2.33;;
24216;SDS011;12356;49.386;8.688;2022-10-17T09:16:02;6.78;;;2.58;;
24216;SDS011;12356;49.386;8.688;2022-10-17T09:18:40;8.23;;;2.50;;
24216;SDS011;12356;49.386;8.688;2022-10-17T09:24:17;7.43;;;2.72;;
24216;SDS011;12356;49.386;8.688;2022-10-17T09:26:54;11.32;;;2.78;;
24216;SDS011;12356;49.386;8.688;2022-10-17T09:29:25;7.32;;;2.67;;
24216;SDS011;12356;49.386;8.688;2022-10-17T09:32:12;5.82;;;2.47;;
24216;SDS011;12356;49.386;8.688;2022-10-17T09:34:47;5.05;;;2.40;;
24216;SDS011;12356;49.386;8.688;2022-10-17T09:37:18;8.05;;;2.42;;
24216;SDS011;12356;49.386;8.688;2022-10-17T09:39:54;6.13;;;2.78;;
24216;SDS011;12356;49.386;8.688;2022-10-17T09:42:25;7.85;;;2.47;;
24216;SDS011;12356;49.386;8.688;2022-10-17T09:45:19;8.10;;;2.88;;
24216;SDS011;12356;49.386;8.688;2022-10-17T09:48:15;7.93;;;2.75;;
24216;SDS011;12356;49.386;8.688;2022-10-17T09:50:53;4.95;;;2.45;;
24216;SDS011;12356;49.386;8.688;2022-10-17T09:53:28;6.57;;;2.70;;
24216;SDS011;12356;49.386;8.688;2022-10-17T09:56:04;8.98;;;2.67;;
24216;SDS011;12356;49.386;8.688;2022-10-17T09:58:41;7.57;;;2.72;;
24216;SDS011;12356;49.386;8.688;2022-10-17T10:01:14;6.22;;;2.53;;
24216;SDS011;12356;49.386;8.688;2022-10-17T10:03:47;6.63;;;2.97;;
24216;SDS011;12356;49.386;8.688;2022-10-17T10:06:37;8.05;;;2.72;;
24216;SDS011;12356;49.386;8.688;2022-10-17T10:09:23;3.50;;;2.53;;
24216;SDS011;12356;49.386;8.688;2022-10-17T10:11:56;8.73;;;2.88;;
24216;SDS011;12356;49.386;8.688;2022-10-17T10:14:30;5.68;;;2.85;;
24216;SDS011;12356;49.386;8.688;2022-10-17T10:17:03;7.78;;;2.80;;
24216;SDS011;12356;49.386;8.688;2022-10-17T10:19:54;6.30;;;2.70;;
24216;SDS011;12356;49.386;8.688;2022-10-17T10:22:25;13.70;;;3.00;;
24216;SDS011;12356;49.386;8.688;2022-10-17T10:27:36;7.18;;;3.33;;
24216;SDS011;12356;49.386;8.688;2022-10-17T10:30:21;7.03;;;3.30;;
24216;SDS011;12356;49.386;8.688;2022-10-17T10:32:57;5.88;;;3.03;;
24216;SDS011;12356;49.386;8.688;2022-10-17T10:38:02;5.43;;;3.28;;
24216;SDS011;12356;49.386;8.688;2022-10-17T10:40:54;6.43;;;3.05;;
24216;SDS011;12356;49.386;8.688;2022-10-17T10:48:49;4.80;;;2.90;;
24216;SDS011;12356;49.386;8.688;2022-10-17T10:51:28;6.57;;;2.80;;
24216;SDS011;12356;49.386;8.688;2022-10-17T10:54:10;8.57;;;3.35;;
24216;SDS011;12356;49.386;8.688;2022-10-17T10:56:43;4.82;;;3.20;;
24216;SDS011;12356;49.386;8.688;2022-10-17T10:59:29;10.93;;;3.03;;
24216;SDS011;12356;49.386;8.688;2022-10-17T11:02:13;9.45;;;3.17;;
24216;SDS011;12356;49.386;8.688;2022-10-17T11:04:50;7.28;;;3.30;;
24216;SDS011;12356;49.386;8.688;2022-10-17T11:07:26;7.18;;;2.83;;
24216;SDS011;12356;49.386;8.688;2022-10-17T11:17:56;6.63;;;2.95;;
24216;SDS011;12356;49.386;8.688;2022-10-17T11:20:41;7.00;;;2.67;;
24216;SDS011;12356;49.386;8.688;2022-10-17T11:23:27;8.80;;;3.38;;
24216;SDS011;12356;49.386;8.688;2022-10-17T11:26:00;8.88;;;3.05;;
24216;SDS011;12356;49.386;8.688;2022-10-17T11:28:35;12.02;;;3.55;;
24216;SDS011;12356;49.386;8.688;2022-10-17T11:31:11;8.82;;;3.05;;
24216;SDS011;12356;49.386;8.688;2022-10-17T11:36:27;9.10;;;3.50;;
24216;SDS011;12356;49.386;8.688;2022-10-17T11:39:02;11.55;;;3.03;;
24216;SDS011;12356;49.386;8.688;2022-10-17T11:49:30;7.20;;;3.20;;
24216;SDS011;12356;49.386;8.688;2022-10-17T11:55:02;11.65;;;3.03;;
24216;SDS011;12356;49.386;8.688;2022-10-17T11:57:51;8.27;;;3.08;;
24216;SDS011;12356;49.386;8.688;2022-10-17T12:03:11;13.27;;;2.70;;
24216;SDS011;12356;49.386;8.688;2022-10-17T12:08:31;11.75;;;3.47;;
24216;SDS011;12356;49.386;8.688;2022-10-17T12:22:55;7.78;;;3.20;;
24216;SDS011;12356;49.386;8.688;2022-10-17T12:25:55;6.88;;;2.60;;
24216;SDS011;12356;49.386;8.688;2022-10-17T12:28:31;5.90;;;2.70;;
24216;SDS011;12356;49.386;8.688;2022-10-17T12:33:53;4.38;;;2.50;;
24216;SDS011;12356;49.386;8.688;2022-10-17T12:46:50;6.05;;;2.70;;
24216;SDS011;12356;49.386;8.688;2022-10-17T12:49:46;5.78;;;2.67;;
24216;SDS011;12356;49.386;8.688;2022-10-17T12:52:22;3.90;;;2.70;;
24216;SDS011;12356;49.386;8.688;2022-10-17T12:54:58;5.82;;;2.80;;
24216;SDS011;12356;49.386;8.688;2022-10-17T12:57:34;6.28;;;2.90;;
24216;SDS011;12356;49.386;8.688;2022-10-17T13:00:25;4.38;;;2.70;;
24216;SDS011;12356;49.386;8.688;2022-10-17T13:03:16;4.10;;;2.67;;
24216;SDS011;12356;49.386;8.688;2022-10-17T13:05:51;8.63;;;3.05;;
24216;SDS011;12356;49.386;8.688;2022-10-17T13:08:38;8.30;;;3.03;;
24216;SDS011;12356;49.386;8.688;2022-10-17T13:11:13;8.93;;;3.05;;
24216;SDS011;12356;49.386;8.688;2022-10-17T13:13:45;7.85;;;2.80;;
24216;SDS011;12356;49.386;8.688;2022-10-17T13:16:31;6.00;;;2.90;;
24216;SDS011;12356;49.386;8.688;2022-10-17T13:19:13;6.22;;;2.80;;
24216;SDS011;12356;49.386;8.688;2022-10-17T13:21:49;7.72;;;3.08;;
24216;SDS011;12356;49.386;8.688;2022-10-17T13:26:57;7.63;;;3.00;;
24216;SDS011;12356;49.386;8.688;2022-10-17T13:29:29;10.90;;;3.13;;
24216;SDS011;12356;49.386;8.688;2022-10-17T13:32:02;6.47;;;2.80;;
24216;SDS011;12356;49.386;8.688;2022-10-17T13:37:05;6.05;;;2.80;;
24216;SDS011;12356;49.386;8.688;2022-10-17T13:39:40;7.63;;;2.63;;
24216;SDS011;12356;49.386;8.688;2022-10-17T13:42:23;12.05;;;3.10;;
24216;SDS011;12356;49.386;8.688;2022-10-17T13:44:57;5.63;;;3.15;;
24216;SDS011;12356;49.386;8.688;2022-10-17T13:47:29;10.27;;;2.90;;
24216;SDS011;12356;49.386;8.688;2022-10-17T13:50:05;6.65;;;3.00;;
24216;SDS011;12356;49.386;8.688;2022-10-17T13:52:37;8.10;;;3.20;;
24216;SDS011;12356;49.386;8.688;2022-10-17T13:55:08;9.68;;;2.83;;
24216;SDS011;12356;49.386;8.688;2022-10-17T13:57:49;5.53;;;2.75;;
24216;SDS011;12356;49.386;8.688;2022-10-17T14:00:21;5.65;;;2.97;;
24216;SDS011;12356;49.386;8.688;2022-10-17T14:02:53;7.63;;;2.78;;
24216;SDS011;12356;49.386;8.688;2022-10-17T14:05:24;4.30;;;3.00;;
24216;SDS011;12356;49.386;8.688;2022-10-17T14:08:02;8.93;;;3.28;;
24216;SDS011;12356;49.386;8.688;2022-10-17T14:10:35;7.35;;;3.10;;
24216;SDS011;12356;49.386;8.688;2022-10-17T14:13:15;7.25;;;2.80;;
24216;SDS011;12356;49.386;8.688;2022-10-17T14:15:52;8.95;;;3.05;;
24216;SDS011;12356;49.386;8.688;2022-10-17T14:18:26;8.07;;;2.95;;
24216;SDS011;12356;49.386;8.688;2022-10-17T14:20:59;11.15;;;3.33;;
24216;SDS011;12356;49.386;8.688;2022-10-17T14:23:35;6.00;;;3.10;;
24216;SDS011;12356;49.386;8.688;2022-10-17T14:26:09;5.00;;;3.00;;
24216;SDS011;12356;49.386;8.688;2022-10-17T14:28:47;4.68;;;2.80;;
24216;SDS011;12356;49.386;8.688;2022-10-17T14:31:28;11.48;;;3.00;;
24216;SDS011;12356;49.386;8.688;2022-10-17T14:34:03;8.02;;;3.30;;
24216;SDS011;12356;49.386;8.688;2022-10-17T14:36:36;6.95;;;3.03;;
24216;SDS011;12356;49.386;8.688;2022-10-17T14:39:16;6.30;;;2.95;;
24216;SDS011;12356;49.386;8.688;2022-10-17T14:41:50;5.07;;;3.00;;
24216;SDS011;12356;49.386;8.688;2022-10-17T14:44:22;9.55;;;2.97;;
24216;SDS011;12356;49.386;8.688;2022-10-17T14:49:38;7.03;;;3.00;;
24216;SDS011;12356;49.386;8.688;2022-10-17T14:52:22;7.72;;;3.15;;
24216;SDS011;12356;49.386;8.688;2022-10-17T14:54:55;9.48;;;3.40;;
24216;SDS011;12356;49.386;8.688;2022-10-17T14:57:33;12.05;;;3.50;;
24216;SDS011;12356;49.386;8.688;2022-10-17T15:00:14;10.52;;;3.50;;
24216;SDS011;12356;49.386;8.688;2022-10-17T15:02:46;4.57;;;3.08;;
24216;SDS011;12356;49.386;8.688;2022-10-17T15:05:18;8.30;;;3.00;;
24216;SDS011;12356;49.386;8.688;2022-10-17T15:07:52;8.10;;;3.35;;
24216;SDS011;12356;49.386;8.688;2022-10-17T15:10:33;8.90;;;3.35;;
24216;SDS011;12356;49.386;8.688;2022-10-17T15:13:05;8.63;;;3.35;;
24216;SDS011;12356;49.386;8.688;2022-10-17T15:15:37;7.25;;;3.20;;
24216;SDS011;12356;49.386;8.688;2022-10-17T15:20:40;11.07;;;3.20;;
24216;SDS011;12356;49.386;8.688;2022-10-17T15:23:11;6.97;;;3.42;;
24216;SDS011;12356;49.386;8.688;2022-10-17T15:25:41;6.47;;;3.47;;
24216;SDS011;12356;49.386;8.688;2022-10-17T15:28:12;7.93;;;3.45;;
24216;SDS011;12356;49.386;8.688;2022-10-17T15:30:43;4.95;;;3.25;;
24216;SDS011;12356;49.386;8.688;2022-10-17T15:33:13;11.48;;;3.53;;
24216;SDS011;12356;49.386;8.688;2022-10-17T15:35:44;5.32;;;3.47;;
24216;SDS011;12356;49.386;8.688;2022-10-17T15:38:15;9.48;;;3.40;;
24216;SDS011;12356;49.386;8.688;2022-10-17T15:40:47;6.82;;;3.65;;
24216;SDS011;12356;49.386;8.688;2022-10-17T15:45:50;8.30;;;4.15;;
24216;SDS011;12356;49.386;8.688;2022-10-17T15:48:23;9.90;;;4.65;;
24216;SDS011;12356;49.386;8.688;2022-10-17T15:50:58;8.18;;;4.80;;
24216;SDS011;12356;49.386;8.688;2022-10-17T15:53:29;5.35;;;4.10;;
24216;SDS011;12356;49.386;8.688;2022-10-17T15:56:00;9.25;;;4.70;;
24216;SDS011;12356;49.386;8.688;2022-10-17T15:58:38;11.13;;;4.63;;
24216;SDS011;12356;49.386;8.688;2022-10-17T16:01:18;6.70;;;3.80;;
24216;SDS011;12356;49.386;8.688;2022-10-17T16:03:54;5.80;;;3.65;;
24216;SDS011;12356;49.386;8.688;2022-10-17T16:06:26;8.30;;;4.30;;
24216;SDS011;12356;49.386;8.688;2022-10-17T16:08:57;12.23;;;4.40;;
24216;SDS011;12356;49.386;8.688;2022-10-17T16:14:06;11.93;;;4.53;;
24216;SDS011;12356;49.386;8.688;2022-10-17T16:16:41;9.90;;;4.53;;
24216;SDS011;12356;49.386;8.688;2022-10-17T16:19:12;11.27;;;4.88;;
24216;SDS011;12356;49.386;8.688;2022-10-17T16:21:43;9.82;;;4.85;;
24216;SDS011;12356;49.386;8.688;2022-10-17T16:24:14;10.40;;;4.57;;
24216;SDS011;12356;49.386;8.688;2022-10-17T16:26:44;13.50;;;5.10;;
24216;SDS011;12356;49.386;8.688;2022-10-17T16:29:15;11.10;;;4.90;;
24216;SDS011;12356;49.386;8.688;2022-10-17T16:31:46;10.10;;;4.78;;
24216;SDS011;12356;49.386;8.688;2022-10-17T16:34:16;7.72;;;4.10;;
24216;SDS011;12356;49.386;8.688;2022-10-17T16:36:47;6.85;;;4.28;;
24216;SDS011;12356;49.386;8.688;2022-10-17T16:39:17;10.30;;;4.47;;
24216;SDS011;12356;49.386;8.688;2022-10-17T16:41:48;11.45;;;4.57;;
24216;SDS011;12356;49.386;8.688;2022-10-17T16:44:19;9.88;;;4.55;;
24216;SDS011;12356;49.386;8.688;2022-10-17T16:46:49;10.63;;;4.40;;
24216;SDS011;12356;49.386;8.688;2022-10-17T16:49:20;11.05;;;4.15;;
24216;SDS011;12356;49.386;8.688;2022-10-17T16:51:51;13.60;;;4.68;;
24216;SDS011;12356;49.386;8.688;2022-10-17T16:54:21;11.95;;;4.63;;
24216;SDS011;12356;49.386;8.688;2022-10-17T16:56:52;10.80;;;4.53;;
24216;SDS011;12356;49.386;8.688;2022-10-17T16:59:23;18.65;;;4.90;;
24216;SDS011;12356;49.386;8.688;2022-10-17T17:01:53;10.18;;;4.93;;
24216;SDS011;12356;49.386;8.688;2022-10-17T17:04:24;13.65;;;4.28;;
24216;SDS011;12356;49.386;8.688;2022-10-17T17:06:55;12.48;;;4.38;;
24216;SDS011;12356;49.386;8.688;2022-10-17T17:09:25;10.75;;;4.78;;
24216;SDS011;12356;49.386;8.688;2022-10-17T17:11:56;8.95;;;4.32;;
24216;SDS011;12356;49.386;8.688;2022-10-17T17:14:26;13.25;;;4.30;;
24216;SDS011;12356;49.386;8.688;2022-10-17T17:16:57;10.65;;;4.80;;
24216;SDS011;12356;49.386;8.688;2022-10-17T17:19:28;12.88;;;4.93;;
24216;SDS011;12356;49.386;8.688;2022-10-17T17:21:58;9.18;;;4.75;;